sensor_id;sensor_type;location;lat;lon;timestamp;temperature;humidity
49124;DHT22;48506;48.202;16.274;2022-10-16T00:01:09;15.10;99.90
49124;DHT22;48506;48.202;16.274;2022-10-16T00:03:38;15.00;99.90
49124;DHT22;48506;48.202;16.274;2022-10-16T00:06:04;15.00;99.90
49124;DHT22;48506;48.202;16.274;2022-10-16T00:08:31;15.00;99.90
49124;DHT22;48506;48.202;16.274;2022-10-16T00:11:05;15.00;99.90
49124;DHT22;48506;48.202;16.274;2022-10-16T00:13:34;15.00;99.90
49124;DHT22;48506;48.202;16.274;2022-10-16T00:16:01;15.10;99.90
49124;DHT22;48506;48.202;16.274;2022-10-16T00:18:28;15.10;99.90
49124;DHT22;48506;48.202;16.274;2022-10-16T00:20:54;15.10;99.90
49124;DHT22;48506;48.202;16.274;2022-10-16T00:23:21;15.20;99.90
49124;DHT22;48506;48.202;16.274;2022-10-16T00:25:58;15.20;99.90
49124;DHT22;48506;48.202;16.274;2022-10-16T00:28:24;15.20;99.90
49124;DHT22;48506;48.202;16.274;2022-10-16T00:30:50;15.20;99.90
49124;DHT22;48506;48.202;16.274;2022-10-16T00:33:17;15.20;99.90
49124;DHT22;48506;48.202;16.274;2022-10-16T00:35:43;15.20;99.90
49124;DHT22;48506;48.202;16.274;2022-10-16T00:38:09;15.20;99.90
49124;DHT22;48506;48.202;16.274;2022-10-16T00:40:35;15.20;99.90
49124;DHT22;48506;48.202;16.274;2022-10-16T00:43:01;15.20;99.90
49124;DHT22;48506;48.202;16.274;2022-10-16T00:45:27;15.20;99.90
49124;DHT22;48506;48.202;16.274;2022-10-16T00:47:56;15.20;99.90
49124;DHT22;48506;48.202;16.274;2022-10-16T00:50:30;15.20;99.90
49124;DHT22;48506;48.202;16.274;2022-10-16T00:52:57;15.20;99.90
49124;DHT22;48506;48.202;16.274;2022-10-16T00:55:25;15.30;99.90
49124;DHT22;48506;48.202;16.274;2022-10-16T00:57:52;15.20;99.90
49124;DHT22;48506;48.202;16.274;2022-10-16T01:00:22;15.20;99.90
49124;DHT22;48506;48.202;16.274;2022-10-16T01:02:53;15.10;99.90
49124;DHT22;48506;48.202;16.274;2022-10-16T01:05:21;15.10;99.90
49124;DHT22;48506;48.202;16.274;2022-10-16T01:10:41;15.10;99.90
49124;DHT22;48506;48.202;16.274;2022-10-16T01:13:21;15.10;99.90
49124;DHT22;48506;48.202;16.274;2022-10-16T01:15:56;15.10;99.90
49124;DHT22;48506;48.202;16.274;2022-10-16T01:21:26;15.10;99.90
49124;DHT22;48506;48.202;16.274;2022-10-16T01:28:57;15.10;99.90
49124;DHT22;48506;48.202;16.274;2022-10-16T01:31:27;15.10;99.90
49124;DHT22;48506;48.202;16.274;2022-10-16T01:33:56;15.10;99.90
49124;DHT22;48506;48.202;16.274;2022-10-16T01:36:24;15.20;99.90
49124;DHT22;48506;48.202;16.274;2022-10-16T01:38:51;15.20;99.90
49124;DHT22;48506;48.202;16.274;2022-10-16T01:43:46;15.30;99.90
49124;DHT22;48506;48.202;16.274;2022-10-16T01:46:15;15.30;99.90
49124;DHT22;48506;48.202;16.274;2022-10-16T01:48:42;15.30;99.90
49124;DHT22;48506;48.202;16.274;2022-10-16T01:51:12;15.30;99.90
49124;DHT22;48506;48.202;16.274;2022-10-16T01:53:39;15.20;99.90
49124;DHT22;48506;48.202;16.274;2022-10-16T01:56:07;15.20;99.90
49124;DHT22;48506;48.202;16.274;2022-10-16T01:58:34;15.30;99.90
49124;DHT22;48506;48.202;16.274;2022-10-16T02:01:03;15.30;99.90
49124;DHT22;48506;48.202;16.274;2022-10-16T02:03:30;15.30;99.90
49124;DHT22;48506;48.202;16.274;2022-10-16T02:05:57;15.30;99.90
49124;DHT22;48506;48.202;16.274;2022-10-16T02:08:26;15.30;99.90
49124;DHT22;48506;48.202;16.274;2022-10-16T02:10:57;15.30;99.90
49124;DHT22;48506;48.202;16.274;2022-10-16T02:13:25;15.30;99.90
49124;DHT22;48506;48.202;16.274;2022-10-16T02:15:52;15.30;99.90
49124;DHT22;48506;48.202;16.274;2022-10-16T02:18:18;15.20;99.90
49124;DHT22;48506;48.202;16.274;2022-10-16T02:20:47;15.20;99.90
49124;DHT22;48506;48.202;16.274;2022-10-16T02:23:19;15.20;99.90
49124;DHT22;48506;48.202;16.274;2022-10-16T02:25:50;15.20;99.90
49124;DHT22;48506;48.202;16.274;2022-10-16T02:28:19;15.20;99.90
49124;DHT22;48506;48.202;16.274;2022-10-16T02:30:50;15.10;99.90
49124;DHT22;48506;48.202;16.274;2022-10-16T02:33:16;15.10;99.90
49124;DHT22;48506;48.202;16.274;2022-10-16T02:35:43;15.10;99.90
49124;DHT22;48506;48.202;16.274;2022-10-16T02:38:10;15.00;99.90
49124;DHT22;48506;48.202;16.274;2022-10-16T02:40:38;15.00;99.90
49124;DHT22;48506;48.202;16.274;2022-10-16T02:43:04;15.00;99.90
49124;DHT22;48506;48.202;16.274;2022-10-16T02:45:30;15.10;99.90
49124;DHT22;48506;48.202;16.274;2022-10-16T02:47:56;15.00;99.90
49124;DHT22;48506;48.202;16.274;2022-10-16T02:50:22;15.10;99.90
49124;DHT22;48506;48.202;16.274;2022-10-16T02:52:49;15.10;99.90
49124;DHT22;48506;48.202;16.274;2022-10-16T02:55:15;15.00;99.90
49124;DHT22;48506;48.202;16.274;2022-10-16T02:57:41;15.10;99.90
49124;DHT22;48506;48.202;16.274;2022-10-16T03:00:09;15.10;99.90
49124;DHT22;48506;48.202;16.274;2022-10-16T03:02:36;15.00;99.90
49124;DHT22;48506;48.202;16.274;2022-10-16T03:05:02;15.00;99.90
49124;DHT22;48506;48.202;16.274;2022-10-16T03:07:28;15.00;99.90
49124;DHT22;48506;48.202;16.274;2022-10-16T03:09:55;15.00;99.90
49124;DHT22;48506;48.202;16.274;2022-10-16T03:12:21;15.00;99.90
49124;DHT22;48506;48.202;16.274;2022-10-16T03:14:47;14.90;99.90
49124;DHT22;48506;48.202;16.274;2022-10-16T03:17:13;14.90;99.90
49124;DHT22;48506;48.202;16.274;2022-10-16T03:19:42;14.90;99.90
49124;DHT22;48506;48.202;16.274;2022-10-16T03:22:08;14.80;99.90
49124;DHT22;48506;48.202;16.274;2022-10-16T03:24:34;14.80;99.90
49124;DHT22;48506;48.202;16.274;2022-10-16T03:27:00;14.80;99.90
49124;DHT22;48506;48.202;16.274;2022-10-16T03:29:26;14.80;99.90
49124;DHT22;48506;48.202;16.274;2022-10-16T03:31:53;14.70;99.90
49124;DHT22;48506;48.202;16.274;2022-10-16T03:34:18;14.70;99.90
49124;DHT22;48506;48.202;16.274;2022-10-16T03:36:44;14.70;99.90
49124;DHT22;48506;48.202;16.274;2022-10-16T03:39:10;14.70;99.90
49124;DHT22;48506;48.202;16.274;2022-10-16T03:41:36;14.70;99.90
49124;DHT22;48506;48.202;16.274;2022-10-16T03:44:02;14.80;99.90
49124;DHT22;48506;48.202;16.274;2022-10-16T03:46:28;14.80;99.90
49124;DHT22;48506;48.202;16.274;2022-10-16T03:48:55;14.80;99.90
49124;DHT22;48506;48.202;16.274;2022-10-16T03:51:20;14.90;99.90
49124;DHT22;48506;48.202;16.274;2022-10-16T03:53:46;14.80;99.90
49124;DHT22;48506;48.202;16.274;2022-10-16T03:56:13;14.90;99.90
49124;DHT22;48506;48.202;16.274;2022-10-16T03:58:39;14.80;99.90
49124;DHT22;48506;48.202;16.274;2022-10-16T04:01:05;14.80;99.90
49124;DHT22;48506;48.202;16.274;2022-10-16T04:03:31;14.80;99.90
49124;DHT22;48506;48.202;16.274;2022-10-16T04:05:58;14.80;99.90
49124;DHT22;48506;48.202;16.274;2022-10-16T04:08:24;14.80;99.90
49124;DHT22;48506;48.202;16.274;2022-10-16T04:10:50;14.80;99.90
49124;DHT22;48506;48.202;16.274;2022-10-16T04:13:16;14.80;99.90
49124;DHT22;48506;48.202;16.274;2022-10-16T04:15:44;14.80;99.90
49124;DHT22;48506;48.202;16.274;2022-10-16T04:18:10;14.80;99.90
49124;DHT22;48506;48.202;16.274;2022-10-16T04:20:36;14.80;99.90
49124;DHT22;48506;48.202;16.274;2022-10-16T04:23:02;14.80;99.90
49124;DHT22;48506;48.202;16.274;2022-10-16T04:25:28;14.80;99.90
49124;DHT22;48506;48.202;16.274;2022-10-16T04:27:54;14.80;99.90
49124;DHT22;48506;48.202;16.274;2022-10-16T04:30:20;14.80;99.90
49124;DHT22;48506;48.202;16.274;2022-10-16T04:32:49;14.70;99.90
49124;DHT22;48506;48.202;16.274;2022-10-16T04:35:16;14.70;99.90
49124;DHT22;48506;48.202;16.274;2022-10-16T04:37:41;14.70;99.90
49124;DHT22;48506;48.202;16.274;2022-10-16T04:40:08;14.70;99.90
49124;DHT22;48506;48.202;16.274;2022-10-16T04:42:33;14.70;99.90
49124;DHT22;48506;48.202;16.274;2022-10-16T04:44:59;14.70;99.90
49124;DHT22;48506;48.202;16.274;2022-10-16T04:47:26;14.70;99.90
49124;DHT22;48506;48.202;16.274;2022-10-16T04:49:52;14.60;99.90
49124;DHT22;48506;48.202;16.274;2022-10-16T04:52:19;14.70;99.90
49124;DHT22;48506;48.202;16.274;2022-10-16T04:54:46;14.60;99.90
49124;DHT22;48506;48.202;16.274;2022-10-16T04:57:14;14.50;99.90
49124;DHT22;48506;48.202;16.274;2022-10-16T04:59:39;14.50;99.90
49124;DHT22;48506;48.202;16.274;2022-10-16T05:02:06;14.50;99.90
49124;DHT22;48506;48.202;16.274;2022-10-16T05:04:32;14.50;99.90
49124;DHT22;48506;48.202;16.274;2022-10-16T05:06:58;14.50;99.90
49124;DHT22;48506;48.202;16.274;2022-10-16T05:09:23;14.50;99.90
49124;DHT22;48506;48.202;16.274;2022-10-16T05:11:50;14.50;99.90
49124;DHT22;48506;48.202;16.274;2022-10-16T05:14:17;14.40;99.90
49124;DHT22;48506;48.202;16.274;2022-10-16T05:16:44;14.40;99.90
49124;DHT22;48506;48.202;16.274;2022-10-16T05:19:09;14.40;99.90
49124;DHT22;48506;48.202;16.274;2022-10-16T05:21:35;14.30;99.90
49124;DHT22;48506;48.202;16.274;2022-10-16T05:24:02;14.30;99.90
49124;DHT22;48506;48.202;16.274;2022-10-16T05:26:27;14.20;99.90
49124;DHT22;48506;48.202;16.274;2022-10-16T05:28:53;14.20;99.90
49124;DHT22;48506;48.202;16.274;2022-10-16T05:31:20;14.20;99.90
49124;DHT22;48506;48.202;16.274;2022-10-16T05:33:46;14.30;99.90
49124;DHT22;48506;48.202;16.274;2022-10-16T05:36:12;14.30;99.90
49124;DHT22;48506;48.202;16.274;2022-10-16T05:38:38;14.30;99.90
49124;DHT22;48506;48.202;16.274;2022-10-16T05:41:04;14.40;99.90
49124;DHT22;48506;48.202;16.274;2022-10-16T05:43:31;14.30;99.90
49124;DHT22;48506;48.202;16.274;2022-10-16T05:45:59;14.30;99.90
49124;DHT22;48506;48.202;16.274;2022-10-16T05:48:25;14.30;99.90
49124;DHT22;48506;48.202;16.274;2022-10-16T05:51:01;14.30;99.90
49124;DHT22;48506;48.202;16.274;2022-10-16T05:53:28;14.40;99.90
49124;DHT22;48506;48.202;16.274;2022-10-16T05:55:54;14.40;99.90
49124;DHT22;48506;48.202;16.274;2022-10-16T05:58:21;14.40;99.90
49124;DHT22;48506;48.202;16.274;2022-10-16T06:00:56;14.40;99.90
49124;DHT22;48506;48.202;16.274;2022-10-16T06:03:23;14.40;99.90
49124;DHT22;48506;48.202;16.274;2022-10-16T06:05:49;14.50;99.90
49124;DHT22;48506;48.202;16.274;2022-10-16T06:08:15;14.50;99.90
49124;DHT22;48506;48.202;16.274;2022-10-16T06:10:42;14.50;99.90
49124;DHT22;48506;48.202;16.274;2022-10-16T06:13:10;14.50;99.90
49124;DHT22;48506;48.202;16.274;2022-10-16T06:15:38;14.50;99.90
49124;DHT22;48506;48.202;16.274;2022-10-16T06:18:05;14.50;99.90
49124;DHT22;48506;48.202;16.274;2022-10-16T06:20:30;14.40;99.90
49124;DHT22;48506;48.202;16.274;2022-10-16T06:22:56;14.40;99.90
49124;DHT22;48506;48.202;16.274;2022-10-16T06:25:23;14.40;99.90
49124;DHT22;48506;48.202;16.274;2022-10-16T06:27:49;14.40;99.90
49124;DHT22;48506;48.202;16.274;2022-10-16T06:30:14;14.50;99.90
49124;DHT22;48506;48.202;16.274;2022-10-16T06:32:40;14.50;99.90
49124;DHT22;48506;48.202;16.274;2022-10-16T06:35:07;14.50;99.90
49124;DHT22;48506;48.202;16.274;2022-10-16T06:37:32;14.50;99.90
49124;DHT22;48506;48.202;16.274;2022-10-16T06:39:58;14.60;99.90
49124;DHT22;48506;48.202;16.274;2022-10-16T06:42:26;14.60;99.90
49124;DHT22;48506;48.202;16.274;2022-10-16T06:44:53;14.60;99.90
49124;DHT22;48506;48.202;16.274;2022-10-16T06:47:18;14.70;99.90
49124;DHT22;48506;48.202;16.274;2022-10-16T06:49:44;14.60;99.90
49124;DHT22;48506;48.202;16.274;2022-10-16T06:52:10;14.60;99.90
49124;DHT22;48506;48.202;16.274;2022-10-16T06:54:35;14.50;99.90
49124;DHT22;48506;48.202;16.274;2022-10-16T06:57:01;14.60;99.90
49124;DHT22;48506;48.202;16.274;2022-10-16T06:59:27;14.50;99.90
49124;DHT22;48506;48.202;16.274;2022-10-16T07:01:52;14.50;99.90
49124;DHT22;48506;48.202;16.274;2022-10-16T07:04:18;14.50;99.90
49124;DHT22;48506;48.202;16.274;2022-10-16T07:06:44;14.50;99.90
49124;DHT22;48506;48.202;16.274;2022-10-16T07:09:10;14.50;99.90
49124;DHT22;48506;48.202;16.274;2022-10-16T07:11:37;14.50;99.90
49124;DHT22;48506;48.202;16.274;2022-10-16T07:14:03;14.50;99.90
49124;DHT22;48506;48.202;16.274;2022-10-16T07:16:30;14.60;99.90
49124;DHT22;48506;48.202;16.274;2022-10-16T07:18:56;14.60;99.90
49124;DHT22;48506;48.202;16.274;2022-10-16T07:21:24;14.60;99.90
49124;DHT22;48506;48.202;16.274;2022-10-16T07:23:51;14.70;99.90
49124;DHT22;48506;48.202;16.274;2022-10-16T07:26:17;14.70;99.90
49124;DHT22;48506;48.202;16.274;2022-10-16T07:28:43;14.80;99.90
49124;DHT22;48506;48.202;16.274;2022-10-16T07:31:10;14.90;99.90
49124;DHT22;48506;48.202;16.274;2022-10-16T07:33:37;14.90;99.90
49124;DHT22;48506;48.202;16.274;2022-10-16T07:36:04;15.00;99.90
49124;DHT22;48506;48.202;16.274;2022-10-16T07:38:30;15.00;99.90
49124;DHT22;48506;48.202;16.274;2022-10-16T07:40:57;15.00;99.90
49124;DHT22;48506;48.202;16.274;2022-10-16T07:43:25;15.00;99.90
49124;DHT22;48506;48.202;16.274;2022-10-16T07:45:51;14.90;99.90
49124;DHT22;48506;48.202;16.274;2022-10-16T07:48:17;14.90;99.90
49124;DHT22;48506;48.202;16.274;2022-10-16T07:50:44;14.70;99.90
49124;DHT22;48506;48.202;16.274;2022-10-16T07:53:10;14.70;99.90
49124;DHT22;48506;48.202;16.274;2022-10-16T07:55:37;14.70;99.90
49124;DHT22;48506;48.202;16.274;2022-10-16T07:58:03;14.70;99.90
49124;DHT22;48506;48.202;16.274;2022-10-16T08:00:30;14.70;99.90
49124;DHT22;48506;48.202;16.274;2022-10-16T08:02:56;14.70;99.90
49124;DHT22;48506;48.202;16.274;2022-10-16T08:05:29;14.80;99.90
49124;DHT22;48506;48.202;16.274;2022-10-16T08:07:56;14.80;99.90
49124;DHT22;48506;48.202;16.274;2022-10-16T08:10:24;14.80;99.90
49124;DHT22;48506;48.202;16.274;2022-10-16T08:12:50;14.80;99.90
49124;DHT22;48506;48.202;16.274;2022-10-16T08:15:17;14.80;99.90
49124;DHT22;48506;48.202;16.274;2022-10-16T08:17:44;14.80;99.90
49124;DHT22;48506;48.202;16.274;2022-10-16T08:20:10;14.80;99.90
49124;DHT22;48506;48.202;16.274;2022-10-16T08:22:36;14.90;99.90
49124;DHT22;48506;48.202;16.274;2022-10-16T08:25:02;14.90;99.90
49124;DHT22;48506;48.202;16.274;2022-10-16T08:27:34;15.00;99.90
49124;DHT22;48506;48.202;16.274;2022-10-16T08:30:01;15.00;99.90
49124;DHT22;48506;48.202;16.274;2022-10-16T08:32:28;15.00;99.90
49124;DHT22;48506;48.202;16.274;2022-10-16T08:34:53;15.00;99.90
49124;DHT22;48506;48.202;16.274;2022-10-16T08:37:19;15.10;99.90
49124;DHT22;48506;48.202;16.274;2022-10-16T08:39:45;15.10;99.90
49124;DHT22;48506;48.202;16.274;2022-10-16T08:49:35;15.20;99.90
49124;DHT22;48506;48.202;16.274;2022-10-16T08:52:02;15.30;99.90
49124;DHT22;48506;48.202;16.274;2022-10-16T08:54:37;15.20;99.90
49124;DHT22;48506;48.202;16.274;2022-10-16T08:57:09;15.20;99.90
49124;DHT22;48506;48.202;16.274;2022-10-16T08:59:36;15.30;99.90
49124;DHT22;48506;48.202;16.274;2022-10-16T09:02:02;15.30;99.90
49124;DHT22;48506;48.202;16.274;2022-10-16T09:04:44;15.40;99.90
49124;DHT22;48506;48.202;16.274;2022-10-16T09:07:32;15.40;99.90
49124;DHT22;48506;48.202;16.274;2022-10-16T09:10:03;15.40;99.90
49124;DHT22;48506;48.202;16.274;2022-10-16T09:22:26;15.60;99.90
49124;DHT22;48506;48.202;16.274;2022-10-16T09:24:54;15.60;99.90
49124;DHT22;48506;48.202;16.274;2022-10-16T09:27:20;15.70;99.90
49124;DHT22;48506;48.202;16.274;2022-10-16T09:29:46;15.60;99.90
49124;DHT22;48506;48.202;16.274;2022-10-16T09:32:13;15.70;99.90
49124;DHT22;48506;48.202;16.274;2022-10-16T09:34:42;15.70;99.90
49124;DHT22;48506;48.202;16.274;2022-10-16T09:37:09;15.70;99.90
49124;DHT22;48506;48.202;16.274;2022-10-16T09:39:44;15.70;99.90
49124;DHT22;48506;48.202;16.274;2022-10-16T09:42:13;15.80;99.90
49124;DHT22;48506;48.202;16.274;2022-10-16T09:44:39;15.80;99.90
49124;DHT22;48506;48.202;16.274;2022-10-16T09:47:13;15.80;99.90
49124;DHT22;48506;48.202;16.274;2022-10-16T09:49:49;15.90;99.90
49124;DHT22;48506;48.202;16.274;2022-10-16T09:52:16;15.90;99.90
49124;DHT22;48506;48.202;16.274;2022-10-16T09:54:59;15.90;99.90
49124;DHT22;48506;48.202;16.274;2022-10-16T09:57:25;15.90;99.90
49124;DHT22;48506;48.202;16.274;2022-10-16T09:59:55;15.90;99.90
49124;DHT22;48506;48.202;16.274;2022-10-16T10:02:31;16.00;99.90
49124;DHT22;48506;48.202;16.274;2022-10-16T10:04:59;15.90;99.90
49124;DHT22;48506;48.202;16.274;2022-10-16T10:07:30;16.00;99.90
49124;DHT22;48506;48.202;16.274;2022-10-16T10:10:04;16.00;99.90
49124;DHT22;48506;48.202;16.274;2022-10-16T10:12:31;16.00;99.90
49124;DHT22;48506;48.202;16.274;2022-10-16T10:15:02;16.00;99.90
49124;DHT22;48506;48.202;16.274;2022-10-16T10:17:28;15.90;99.90
49124;DHT22;48506;48.202;16.274;2022-10-16T10:19:59;16.00;99.90
49124;DHT22;48506;48.202;16.274;2022-10-16T10:22:39;16.00;99.90
49124;DHT22;48506;48.202;16.274;2022-10-16T10:30:05;16.10;99.90
49124;DHT22;48506;48.202;16.274;2022-10-16T10:35:13;16.20;99.90
49124;DHT22;48506;48.202;16.274;2022-10-16T10:45:16;16.20;99.90
49124;DHT22;48506;48.202;16.274;2022-10-16T10:50:34;16.10;99.90
49124;DHT22;48506;48.202;16.274;2022-10-16T10:53:12;16.20;99.90
49124;DHT22;48506;48.202;16.274;2022-10-16T10:55:46;16.20;99.90
49124;DHT22;48506;48.202;16.274;2022-10-16T11:03:27;16.30;99.90
49124;DHT22;48506;48.202;16.274;2022-10-16T11:08:40;16.30;99.90
49124;DHT22;48506;48.202;16.274;2022-10-16T11:13:42;16.30;99.90
49124;DHT22;48506;48.202;16.274;2022-10-16T11:16:12;16.40;99.90
49124;DHT22;48506;48.202;16.274;2022-10-16T11:18:59;16.50;99.90
49124;DHT22;48506;48.202;16.274;2022-10-16T11:21:30;16.50;99.90
49124;DHT22;48506;48.202;16.274;2022-10-16T11:23:58;16.50;99.90
49124;DHT22;48506;48.202;16.274;2022-10-16T11:26:27;16.50;99.90
49124;DHT22;48506;48.202;16.274;2022-10-16T11:28:56;16.60;99.90
49124;DHT22;48506;48.202;16.274;2022-10-16T11:31:24;16.60;99.90
49124;DHT22;48506;48.202;16.274;2022-10-16T11:34:03;16.70;99.90
49124;DHT22;48506;48.202;16.274;2022-10-16T11:36:33;16.80;99.90
49124;DHT22;48506;48.202;16.274;2022-10-16T11:39:03;16.90;99.90
49124;DHT22;48506;48.202;16.274;2022-10-16T11:41:51;17.00;99.90
49124;DHT22;48506;48.202;16.274;2022-10-16T11:46:49;17.10;99.90
49124;DHT22;48506;48.202;16.274;2022-10-16T11:49:24;17.10;99.90
49124;DHT22;48506;48.202;16.274;2022-10-16T11:54:49;17.10;99.90
49124;DHT22;48506;48.202;16.274;2022-10-16T11:57:49;17.10;99.90
49124;DHT22;48506;48.202;16.274;2022-10-16T12:00:31;17.20;99.90
49124;DHT22;48506;48.202;16.274;2022-10-16T12:02:57;17.40;99.90
49124;DHT22;48506;48.202;16.274;2022-10-16T12:08:11;18.40;99.90
49124;DHT22;48506;48.202;16.274;2022-10-16T12:10:39;18.70;99.20
49124;DHT22;48506;48.202;16.274;2022-10-16T12:13:26;19.00;98.50
49124;DHT22;48506;48.202;16.274;2022-10-16T12:15:51;19.30;98.50
49124;DHT22;48506;48.202;16.274;2022-10-16T12:18:23;19.60;97.80
49124;DHT22;48506;48.202;16.274;2022-10-16T12:20:55;19.70;96.90
49124;DHT22;48506;48.202;16.274;2022-10-16T12:23:24;19.60;97.80
49124;DHT22;48506;48.202;16.274;2022-10-16T12:25:54;19.60;96.50
49124;DHT22;48506;48.202;16.274;2022-10-16T12:28:21;19.80;98.00
49124;DHT22;48506;48.202;16.274;2022-10-16T12:33:35;20.90;96.90
49124;DHT22;48506;48.202;16.274;2022-10-16T12:36:03;21.30;95.30
49124;DHT22;48506;48.202;16.274;2022-10-16T12:38:36;21.40;95.10
49124;DHT22;48506;48.202;16.274;2022-10-16T12:41:04;21.40;94.30
49124;DHT22;48506;48.202;16.274;2022-10-16T12:43:42;21.40;95.20
49124;DHT22;48506;48.202;16.274;2022-10-16T12:48:34;22.20;93.90
49124;DHT22;48506;48.202;16.274;2022-10-16T12:52:00;22.20;94.20
49124;DHT22;48506;48.202;16.274;2022-10-16T12:59:15;22.30;94.60
49124;DHT22;48506;48.202;16.274;2022-10-16T13:01:52;22.60;93.50
49124;DHT22;48506;48.202;16.274;2022-10-16T13:04:27;22.60;93.30
49124;DHT22;48506;48.202;16.274;2022-10-16T13:07:03;22.50;93.70
49124;DHT22;48506;48.202;16.274;2022-10-16T13:19:45;23.90;92.70
49124;DHT22;48506;48.202;16.274;2022-10-16T13:22:17;24.30;92.60
49124;DHT22;48506;48.202;16.274;2022-10-16T13:32:47;24.50;91.90
49124;DHT22;48506;48.202;16.274;2022-10-16T13:35:24;24.60;91.70
49124;DHT22;48506;48.202;16.274;2022-10-16T13:37:51;24.40;91.00
49124;DHT22;48506;48.202;16.274;2022-10-16T13:40:20;23.90;90.80
49124;DHT22;48506;48.202;16.274;2022-10-16T13:42:46;23.60;91.80
49124;DHT22;48506;48.202;16.274;2022-10-16T13:45:18;23.40;92.00
49124;DHT22;48506;48.202;16.274;2022-10-16T13:47:44;23.20;91.80
49124;DHT22;48506;48.202;16.274;2022-10-16T13:50:14;22.90;92.30
49124;DHT22;48506;48.202;16.274;2022-10-16T13:52:40;22.90;92.60
49124;DHT22;48506;48.202;16.274;2022-10-16T13:55:10;22.70;93.00
49124;DHT22;48506;48.202;16.274;2022-10-16T13:57:37;22.90;93.10
49124;DHT22;48506;48.202;16.274;2022-10-16T14:00:16;23.10;92.80
49124;DHT22;48506;48.202;16.274;2022-10-16T14:02:44;23.30;92.70
49124;DHT22;48506;48.202;16.274;2022-10-16T14:05:10;23.40;92.40
49124;DHT22;48506;48.202;16.274;2022-10-16T14:07:36;23.70;92.50
49124;DHT22;48506;48.202;16.274;2022-10-16T14:10:06;23.70;91.80
49124;DHT22;48506;48.202;16.274;2022-10-16T14:12:33;23.70;91.90
49124;DHT22;48506;48.202;16.274;2022-10-16T14:14:59;23.70;91.30
49124;DHT22;48506;48.202;16.274;2022-10-16T14:17:26;23.80;91.60
49124;DHT22;48506;48.202;16.274;2022-10-16T14:19:54;24.10;91.10
49124;DHT22;48506;48.202;16.274;2022-10-16T14:22:30;24.60;90.70
49124;DHT22;48506;48.202;16.274;2022-10-16T14:24:57;24.80;90.10
49124;DHT22;48506;48.202;16.274;2022-10-16T14:27:36;25.10;90.10
49124;DHT22;48506;48.202;16.274;2022-10-16T14:30:18;25.30;89.50
49124;DHT22;48506;48.202;16.274;2022-10-16T14:32:58;25.70;88.40
49124;DHT22;48506;48.202;16.274;2022-10-16T14:35:26;25.80;88.50
49124;DHT22;48506;48.202;16.274;2022-10-16T14:37:56;25.70;87.90
49124;DHT22;48506;48.202;16.274;2022-10-16T14:40:23;25.50;87.50
49124;DHT22;48506;48.202;16.274;2022-10-16T14:42:49;25.20;88.10
49124;DHT22;48506;48.202;16.274;2022-10-16T14:45:18;25.00;89.00
49124;DHT22;48506;48.202;16.274;2022-10-16T14:47:49;25.10;90.10
49124;DHT22;48506;48.202;16.274;2022-10-16T14:50:15;25.20;90.10
49124;DHT22;48506;48.202;16.274;2022-10-16T14:52:42;25.30;90.00
49124;DHT22;48506;48.202;16.274;2022-10-16T14:55:09;25.50;89.50
49124;DHT22;48506;48.202;16.274;2022-10-16T14:57:36;26.00;87.70
49124;DHT22;48506;48.202;16.274;2022-10-16T15:00:04;26.60;85.20
49124;DHT22;48506;48.202;16.274;2022-10-16T15:02:35;27.30;83.90
49124;DHT22;48506;48.202;16.274;2022-10-16T15:07:40;28.40;80.80
49124;DHT22;48506;48.202;16.274;2022-10-16T15:10:06;28.70;81.00
49124;DHT22;48506;48.202;16.274;2022-10-16T15:12:32;29.00;80.00
49124;DHT22;48506;48.202;16.274;2022-10-16T15:14:57;29.10;79.40
49124;DHT22;48506;48.202;16.274;2022-10-16T15:17:23;29.00;79.10
49124;DHT22;48506;48.202;16.274;2022-10-16T15:19:50;28.90;78.90
49124;DHT22;48506;48.202;16.274;2022-10-16T15:22:17;28.70;78.50
49124;DHT22;48506;48.202;16.274;2022-10-16T15:24:43;28.60;79.20
49124;DHT22;48506;48.202;16.274;2022-10-16T15:27:09;28.30;78.80
49124;DHT22;48506;48.202;16.274;2022-10-16T15:29:35;27.80;79.70
49124;DHT22;48506;48.202;16.274;2022-10-16T15:32:02;27.10;80.60
49124;DHT22;48506;48.202;16.274;2022-10-16T15:34:28;26.40;81.70
49124;DHT22;48506;48.202;16.274;2022-10-16T15:36:54;25.70;83.00
49124;DHT22;48506;48.202;16.274;2022-10-16T15:39:22;25.00;84.30
49124;DHT22;48506;48.202;16.274;2022-10-16T15:41:48;24.40;86.00
49124;DHT22;48506;48.202;16.274;2022-10-16T15:44:19;23.80;87.40
49124;DHT22;48506;48.202;16.274;2022-10-16T15:46:45;23.30;88.70
49124;DHT22;48506;48.202;16.274;2022-10-16T15:49:11;22.90;90.00
49124;DHT22;48506;48.202;16.274;2022-10-16T15:51:38;22.50;90.50
49124;DHT22;48506;48.202;16.274;2022-10-16T15:54:04;22.20;90.80
49124;DHT22;48506;48.202;16.274;2022-10-16T15:56:30;22.00;91.10
49124;DHT22;48506;48.202;16.274;2022-10-16T15:58:59;21.70;91.30
49124;DHT22;48506;48.202;16.274;2022-10-16T16:01:26;21.50;91.60
49124;DHT22;48506;48.202;16.274;2022-10-16T16:03:53;21.20;91.90
49124;DHT22;48506;48.202;16.274;2022-10-16T16:06:19;21.00;92.20
49124;DHT22;48506;48.202;16.274;2022-10-16T16:08:45;20.70;92.50
49124;DHT22;48506;48.202;16.274;2022-10-16T16:11:12;20.50;92.60
49124;DHT22;48506;48.202;16.274;2022-10-16T16:13:38;20.40;92.80
49124;DHT22;48506;48.202;16.274;2022-10-16T16:16:10;20.30;92.90
49124;DHT22;48506;48.202;16.274;2022-10-16T16:18:37;20.20;93.20
49124;DHT22;48506;48.202;16.274;2022-10-16T16:21:03;20.10;93.30
49124;DHT22;48506;48.202;16.274;2022-10-16T16:23:31;19.90;93.40
49124;DHT22;48506;48.202;16.274;2022-10-16T16:26:22;19.80;93.60
49124;DHT22;48506;48.202;16.274;2022-10-16T16:28:45;19.70;93.80
49124;DHT22;48506;48.202;16.274;2022-10-16T16:31:12;19.60;94.00
49124;DHT22;48506;48.202;16.274;2022-10-16T16:33:38;19.50;94.10
49124;DHT22;48506;48.202;16.274;2022-10-16T16:36:04;19.40;94.20
49124;DHT22;48506;48.202;16.274;2022-10-16T16:38:32;19.40;94.30
49124;DHT22;48506;48.202;16.274;2022-10-16T16:40:58;19.30;94.40
49124;DHT22;48506;48.202;16.274;2022-10-16T16:43:25;19.20;94.60
49124;DHT22;48506;48.202;16.274;2022-10-16T16:45:51;19.20;94.70
49124;DHT22;48506;48.202;16.274;2022-10-16T16:48:18;19.20;94.70
49124;DHT22;48506;48.202;16.274;2022-10-16T16:50:44;19.10;94.80
49124;DHT22;48506;48.202;16.274;2022-10-16T16:53:10;19.10;94.80
49124;DHT22;48506;48.202;16.274;2022-10-16T16:55:37;19.10;94.80
49124;DHT22;48506;48.202;16.274;2022-10-16T16:58:03;19.00;94.90
49124;DHT22;48506;48.202;16.274;2022-10-16T17:00:30;19.00;94.90